LGPZ/PVK METAR and TAF weather

Enter ICAO airport designator
Station Type Date Time Source
LGPZ METAR 2021/03/05 17:50 UTC NOAA

LGPZ 051750Z 00000KT 9999 SCT025 13/08 Q1020


Station Type Date Time Source
LGPZ Decoded METAR 2021/03/05 17:50 UTC NOAA

Aktion Airport , Greece (LGPZ) 38-37N 020-46E 4M
Mar 05, 2021 - 12:50 PM EST / 2021.03.05 1750 UTC
Wind: Calm:0
Visibility: greater than 7 mile(s):0
Sky conditions: partly cloudy
Temperature: 55 F (13 C)
Dew Point: 46 F (8 C)
Relative Humidity: 71%
Pressure (altimeter): 30.12 in. Hg (1020 hPa)
ob: LGPZ 051750Z 00000KT 9999 SCT025 13/08 Q1020
cycle: 18

Station Type Date Time Source
LGPZ TAF 2021/03/05 18:16 UTC NOAA

TAF LGPZ 051700Z 0518/0618 27009KT 9999 SCT025 PROB30
TEMPO 0600/0612 5000 RA SCT015 FEW018TCU BKN025 BKN080
BECMG 0520/0522 07009KT

Example: see airport list